• Join FlightAware (Why Join?)
  • Login
  • US Flag 
05:25PM EST


 

Airport Tracker/Info


-or-


 

Live Flight TrackerFlight Track Log ✈ AAH40 ✈ 29-Jun-2012 ✈ PHNL - PHKO / KOA

Flight Track Log - Related Links

Times and Time Zones

All times are in EDT time to prevent confusion due to time zone crossing. See the AAH40 flight status page for this flight to view local times or setup timezone preferences in your user account.

Time Position Orientation Groundspeed Altitude Reporting Facility
EDT Latitude Longitude Course Direction KTS MPH feet Rate Location/Type
05:14PM 21.2833 -157.9000 125° Southeast 200 230 1,100  Level Honolulu Center
05:20PM 21.0500 -157.5500 110° East 350 403 15,300 2,700 Climbing Honolulu Center
05:21PM 21.0167 -157.4500 131° Southeast 360 414 17,700 2,400 Climbing Honolulu Center
05:22PM 20.9500 -157.3667 123° Southeast 360 414 20,100 1,920 Climbing Honolulu Center
05:23PM 20.9000 -157.2833 125° Southeast 380 437 21,600 1,380 Climbing Honolulu Center
05:24PM 20.8333 -157.1833 118° Southeast 400 460 23,000 660 Climbing Honolulu Center
05:25PM 20.7833 -157.0833 125° Southeast 400 460 23,000  Level Honolulu Center
05:26PM 20.7167 -156.9833 125° Southeast 390 449 23,000  Level Honolulu Center
05:27PM 20.6500 -156.8833 131° Southeast 390 449 23,000 -180 Level Honolulu Center
05:28PM 20.5833 -156.8000 125° Southeast 370 426 22,700 -1,500 Descending Honolulu Center
05:29PM 20.5167 -156.7000 118° Southeast 380 437 20,000 -2,520 Descending Honolulu Center
05:30PM 20.4667 -156.6000 123° Southeast 360 414 17,700 -2,280 Descending Honolulu Center
05:31PM 20.4167 -156.5167 130° Southeast 350 403 15,500 -2,220 Descending Honolulu Center
05:32PM 20.3500 -156.4333 123° Southeast 340 391 13,300 -2,040 Descending Honolulu Center
05:33PM 20.3000 -156.3500 129° Southeast 330 380 11,500 -1,680 Descending Honolulu Center
05:34PM 20.2500 -156.2833 155° Southeast 300 345 10,000 -1,440 Descending Honolulu Center
05:35PM 20.1833 -156.2500 145° Southeast 280 322 8,700 -1,620 Descending Honolulu Center
05:36PM 20.1167 -156.2000 159° South 280 322 6,800 -1,680 Descending Honolulu Center
05:37PM 20.0333 -156.1667 137° Southeast 280 322 5,400 -1,380 Descending Honolulu Center
05:38PM 19.9833 -156.1167 155° Southeast 260 299 4,100 -1,380 Descending Honolulu Center
05:39PM 19.9167 -156.0833 155° Southeast 260 299 2,700 -1,200 Descending Honolulu Center
05:40PM 19.8500 -156.0500 163° South 250 288 1,700 -600 Descending Honolulu Center
05:41PM 19.8000 -156.0333 180° South 200 230 1,500 -720 Descending Honolulu Center
05:42PM 19.7667 -156.0333 180° South 120 138 300 -1,200 Descending Honolulu Center